sensor_id;sensor_type;location;lat;lon;timestamp;pressure;altitude;pressure_sealevel;temperature;humidity
53916;BME280;39827;49.652;18.770;2023-01-25T00:00:40;98147.78;;;0.68;100.00
53916;BME280;39827;49.652;18.770;2023-01-25T00:03:05;98156.78;;;0.74;100.00
53916;BME280;39827;49.652;18.770;2023-01-25T00:05:31;98152.03;;;0.96;100.00
53916;BME280;39827;49.652;18.770;2023-01-25T00:07:56;98149.50;;;1.12;100.00
53916;BME280;39827;49.652;18.770;2023-01-25T00:10:22;98134.91;;;0.93;100.00
53916;BME280;39827;49.652;18.770;2023-01-25T00:12:47;98139.25;;;0.84;100.00
53916;BME280;39827;49.652;18.770;2023-01-25T00:15:12;98147.69;;;1.04;100.00
53916;BME280;39827;49.652;18.770;2023-01-25T00:17:38;98141.03;;;0.84;100.00
53916;BME280;39827;49.652;18.770;2023-01-25T00:20:03;98130.09;;;0.80;100.00
53916;BME280;39827;49.652;18.770;2023-01-25T00:22:29;98127.66;;;0.78;100.00
53916;BME280;39827;49.652;18.770;2023-01-25T00:24:54;98129.16;;;0.63;100.00
53916;BME280;39827;49.652;18.770;2023-01-25T00:27:20;98134.19;;;0.83;100.00
53916;BME280;39827;49.652;18.770;2023-01-25T00:29:46;98133.22;;;0.84;100.00
53916;BME280;39827;49.652;18.770;2023-01-25T00:34:43;98124.63;;;0.91;100.00
53916;BME280;39827;49.652;18.770;2023-01-25T00:39:52;98124.25;;;0.86;100.00
53916;BME280;39827;49.652;18.770;2023-01-25T00:42:18;98119.97;;;1.03;100.00
53916;BME280;39827;49.652;18.770;2023-01-25T00:44:44;98121.44;;;0.80;100.00
53916;BME280;39827;49.652;18.770;2023-01-25T00:47:11;98125.34;;;0.75;100.00
53916;BME280;39827;49.652;18.770;2023-01-25T00:49:37;98120.13;;;0.75;100.00
53916;BME280;39827;49.652;18.770;2023-01-25T00:52:03;98116.78;;;0.83;100.00
53916;BME280;39827;49.652;18.770;2023-01-25T00:54:29;98120.06;;;0.94;100.00
53916;BME280;39827;49.652;18.770;2023-01-25T00:56:54;98109.94;;;0.90;100.00
53916;BME280;39827;49.652;18.770;2023-01-25T00:59:22;98124.84;;;0.98;100.00
53916;BME280;39827;49.652;18.770;2023-01-25T01:01:48;98105.25;;;0.94;100.00
53916;BME280;39827;49.652;18.770;2023-01-25T01:04:14;98115.50;;;0.96;100.00
53916;BME280;39827;49.652;18.770;2023-01-25T01:06:40;98105.50;;;0.83;100.00
53916;BME280;39827;49.652;18.770;2023-01-25T01:09:07;98103.75;;;0.91;100.00
53916;BME280;39827;49.652;18.770;2023-01-25T01:11:35;98097.44;;;1.02;100.00
53916;BME280;39827;49.652;18.770;2023-01-25T01:14:00;98090.78;;;1.08;100.00
53916;BME280;39827;49.652;18.770;2023-01-25T01:16:26;98100.69;;;0.96;100.00
53916;BME280;39827;49.652;18.770;2023-01-25T01:18:51;98095.94;;;0.91;100.00
53916;BME280;39827;49.652;18.770;2023-01-25T01:21:17;98094.34;;;0.99;100.00
53916;BME280;39827;49.652;18.770;2023-01-25T01:23:43;98091.50;;;0.84;100.00
53916;BME280;39827;49.652;18.770;2023-01-25T01:26:12;98094.63;;;0.87;100.00
53916;BME280;39827;49.652;18.770;2023-01-25T01:28:38;98089.38;;;0.79;100.00
53916;BME280;39827;49.652;18.770;2023-01-25T01:31:13;98088.63;;;0.95;100.00
53916;BME280;39827;49.652;18.770;2023-01-25T01:33:39;98086.22;;;0.75;100.00
53916;BME280;39827;49.652;18.770;2023-01-25T01:36:13;98075.66;;;0.77;100.00
53916;BME280;39827;49.652;18.770;2023-01-25T01:38:40;98079.84;;;0.70;100.00
53916;BME280;39827;49.652;18.770;2023-01-25T01:41:06;98082.72;;;0.58;100.00
53916;BME280;39827;49.652;18.770;2023-01-25T01:43:31;98085.69;;;0.63;100.00
53916;BME280;39827;49.652;18.770;2023-01-25T01:46:05;98069.19;;;0.55;100.00
53916;BME280;39827;49.652;18.770;2023-01-25T01:54:00;98075.03;;;0.57;100.00
53916;BME280;39827;49.652;18.770;2023-01-25T01:59:44;98083.13;;;0.72;100.00
53916;BME280;39827;49.652;18.770;2023-01-25T02:02:13;98064.91;;;0.54;100.00
53916;BME280;39827;49.652;18.770;2023-01-25T02:04:39;98070.28;;;0.52;100.00
53916;BME280;39827;49.652;18.770;2023-01-25T02:07:12;98059.34;;;0.48;100.00
53916;BME280;39827;49.652;18.770;2023-01-25T02:09:39;98058.13;;;0.61;100.00
53916;BME280;39827;49.652;18.770;2023-01-25T02:12:06;98054.84;;;0.59;100.00
53916;BME280;39827;49.652;18.770;2023-01-25T02:14:33;98063.41;;;0.69;100.00
53916;BME280;39827;49.652;18.770;2023-01-25T02:16:59;98067.63;;;0.70;100.00
53916;BME280;39827;49.652;18.770;2023-01-25T02:22:00;98058.84;;;0.45;100.00
53916;BME280;39827;49.652;18.770;2023-01-25T02:24:32;98049.34;;;0.62;100.00
53916;BME280;39827;49.652;18.770;2023-01-25T02:26:58;98057.19;;;0.70;100.00
53916;BME280;39827;49.652;18.770;2023-01-25T02:29:25;98056.81;;;0.57;100.00
53916;BME280;39827;49.652;18.770;2023-01-25T02:32:05;98046.56;;;0.63;100.00
53916;BME280;39827;49.652;18.770;2023-01-25T02:34:30;98056.56;;;0.68;100.00
53916;BME280;39827;49.652;18.770;2023-01-25T02:36:56;98039.44;;;0.39;100.00
53916;BME280;39827;49.652;18.770;2023-01-25T02:39:22;98046.56;;;0.37;100.00
53916;BME280;39827;49.652;18.770;2023-01-25T02:41:51;98038.34;;;0.23;100.00
53916;BME280;39827;49.652;18.770;2023-01-25T02:44:26;98040.84;;;0.33;100.00
53916;BME280;39827;49.652;18.770;2023-01-25T02:46:52;98025.53;;;0.30;100.00
53916;BME280;39827;49.652;18.770;2023-01-25T02:49:17;98030.38;;;0.25;100.00
53916;BME280;39827;49.652;18.770;2023-01-25T02:51:46;98027.25;;;0.48;100.00
53916;BME280;39827;49.652;18.770;2023-01-25T02:54:12;98027.44;;;0.46;100.00
53916;BME280;39827;49.652;18.770;2023-01-25T02:56:39;98022.91;;;0.30;100.00
53916;BME280;39827;49.652;18.770;2023-01-25T02:59:05;98017.84;;;0.82;100.00
53916;BME280;39827;49.652;18.770;2023-01-25T03:01:32;98009.00;;;0.74;100.00
53916;BME280;39827;49.652;18.770;2023-01-25T03:03:58;98016.69;;;0.84;100.00
53916;BME280;39827;49.652;18.770;2023-01-25T03:06:23;98017.91;;;0.63;100.00
53916;BME280;39827;49.652;18.770;2023-01-25T03:08:49;98006.19;;;0.33;100.00
53916;BME280;39827;49.652;18.770;2023-01-25T03:11:14;98010.53;;;0.59;100.00
53916;BME280;39827;49.652;18.770;2023-01-25T03:13:40;98019.44;;;0.48;100.00
53916;BME280;39827;49.652;18.770;2023-01-25T03:16:08;98021.91;;;0.23;100.00
53916;BME280;39827;49.652;18.770;2023-01-25T03:18:34;98030.38;;;0.25;100.00
53916;BME280;39827;49.652;18.770;2023-01-25T03:21:08;98024.03;;;0.28;100.00
53916;BME280;39827;49.652;18.770;2023-01-25T03:23:34;98012.72;;;0.10;100.00
53916;BME280;39827;49.652;18.770;2023-01-25T03:26:08;98023.84;;;0.47;100.00
53916;BME280;39827;49.652;18.770;2023-01-25T03:28:35;98015.09;;;0.30;100.00
53916;BME280;39827;49.652;18.770;2023-01-25T03:31:00;98014.44;;;0.28;100.00
53916;BME280;39827;49.652;18.770;2023-01-25T03:33:26;98006.28;;;0.23;100.00
53916;BME280;39827;49.652;18.770;2023-01-25T03:35:52;98015.44;;;0.27;100.00
53916;BME280;39827;49.652;18.770;2023-01-25T03:38:18;98021.34;;;0.37;100.00
53916;BME280;39827;49.652;18.770;2023-01-25T03:40:45;98012.44;;;0.48;100.00
53916;BME280;39827;49.652;18.770;2023-01-25T03:43:10;98016.28;;;0.36;100.00
53916;BME280;39827;49.652;18.770;2023-01-25T03:45:35;98013.97;;;0.59;100.00
53916;BME280;39827;49.652;18.770;2023-01-25T03:48:01;98012.78;;;0.54;100.00
53916;BME280;39827;49.652;18.770;2023-01-25T03:50:26;98019.34;;;0.58;100.00
53916;BME280;39827;49.652;18.770;2023-01-25T03:52:52;98016.19;;;0.46;100.00
53916;BME280;39827;49.652;18.770;2023-01-25T03:55:23;98011.66;;;0.56;100.00
53916;BME280;39827;49.652;18.770;2023-01-25T03:57:49;98010.81;;;0.47;100.00
53916;BME280;39827;49.652;18.770;2023-01-25T04:00:15;98010.91;;;0.37;100.00
53916;BME280;39827;49.652;18.770;2023-01-25T04:02:40;98020.00;;;0.33;100.00
53916;BME280;39827;49.652;18.770;2023-01-25T04:05:06;98001.88;;;0.23;100.00
53916;BME280;39827;49.652;18.770;2023-01-25T04:07:32;98014.59;;;0.27;100.00
53916;BME280;39827;49.652;18.770;2023-01-25T04:09:58;98001.16;;;0.13;100.00
53916;BME280;39827;49.652;18.770;2023-01-25T04:12:23;98005.75;;;0.19;100.00
53916;BME280;39827;49.652;18.770;2023-01-25T04:14:49;98002.94;;;0.39;100.00
53916;BME280;39827;49.652;18.770;2023-01-25T04:17:14;98005.00;;;0.27;100.00
53916;BME280;39827;49.652;18.770;2023-01-25T04:19:40;98001.53;;;0.45;100.00
53916;BME280;39827;49.652;18.770;2023-01-25T04:22:05;97997.63;;;0.22;100.00
53916;BME280;39827;49.652;18.770;2023-01-25T04:24:31;98003.19;;;0.28;100.00
53916;BME280;39827;49.652;18.770;2023-01-25T04:26:56;98007.66;;;0.09;100.00
53916;BME280;39827;49.652;18.770;2023-01-25T04:29:22;98007.66;;;0.09;100.00
53916;BME280;39827;49.652;18.770;2023-01-25T04:31:47;97999.47;;;0.04;100.00
53916;BME280;39827;49.652;18.770;2023-01-25T04:34:12;98008.06;;;-0.04;100.00
53916;BME280;39827;49.652;18.770;2023-01-25T04:36:38;98001.34;;;-0.07;100.00
53916;BME280;39827;49.652;18.770;2023-01-25T04:39:03;97998.00;;;0.01;100.00
53916;BME280;39827;49.652;18.770;2023-01-25T04:41:28;97992.31;;;0.06;100.00
53916;BME280;39827;49.652;18.770;2023-01-25T04:43:54;97986.16;;;0.07;100.00
53916;BME280;39827;49.652;18.770;2023-01-25T04:46:20;97991.81;;;0.02;100.00
53916;BME280;39827;49.652;18.770;2023-01-25T04:48:45;97986.94;;;-0.19;100.00
53916;BME280;39827;49.652;18.770;2023-01-25T04:51:11;97987.03;;;-0.03;100.00
53916;BME280;39827;49.652;18.770;2023-01-25T04:53:37;97986.84;;;-0.09;100.00
53916;BME280;39827;49.652;18.770;2023-01-25T04:56:03;97975.47;;;0.18;100.00
53916;BME280;39827;49.652;18.770;2023-01-25T04:58:28;97976.00;;;0.22;100.00
53916;BME280;39827;49.652;18.770;2023-01-25T05:00:58;97977.00;;;0.29;100.00
53916;BME280;39827;49.652;18.770;2023-01-25T05:03:23;97983.28;;;0.18;100.00
53916;BME280;39827;49.652;18.770;2023-01-25T05:05:49;97981.91;;;0.06;100.00
53916;BME280;39827;49.652;18.770;2023-01-25T05:08:14;97981.25;;;0.04;100.00
53916;BME280;39827;49.652;18.770;2023-01-25T05:10:39;97984.34;;;0.07;100.00
53916;BME280;39827;49.652;18.770;2023-01-25T05:13:05;97982.88;;;0.05;100.00
53916;BME280;39827;49.652;18.770;2023-01-25T05:15:30;97975.41;;;0.10;100.00
53916;BME280;39827;49.652;18.770;2023-01-25T05:17:55;97968.16;;;-0.05;100.00
53916;BME280;39827;49.652;18.770;2023-01-25T05:20:21;97969.44;;;-0.09;100.00
53916;BME280;39827;49.652;18.770;2023-01-25T05:22:46;97965.13;;;0.00;100.00
53916;BME280;39827;49.652;18.770;2023-01-25T05:25:11;97960.13;;;0.15;100.00
53916;BME280;39827;49.652;18.770;2023-01-25T05:27:55;97959.00;;;0.09;100.00
53916;BME280;39827;49.652;18.770;2023-01-25T05:30:21;97964.69;;;0.13;100.00
53916;BME280;39827;49.652;18.770;2023-01-25T05:32:47;97968.78;;;0.16;100.00
53916;BME280;39827;49.652;18.770;2023-01-25T05:35:13;97961.31;;;0.21;100.00
53916;BME280;39827;49.652;18.770;2023-01-25T05:37:38;97963.81;;;0.31;100.00
53916;BME280;39827;49.652;18.770;2023-01-25T05:40:04;97962.09;;;0.40;100.00
53916;BME280;39827;49.652;18.770;2023-01-25T05:42:30;97960.31;;;0.14;100.00
53916;BME280;39827;49.652;18.770;2023-01-25T05:44:55;97965.78;;;0.02;100.00
53916;BME280;39827;49.652;18.770;2023-01-25T05:47:21;97960.72;;;0.01;100.00
53916;BME280;39827;49.652;18.770;2023-01-25T05:49:46;97963.53;;;0.07;100.00
53916;BME280;39827;49.652;18.770;2023-01-25T05:52:15;97960.31;;;0.14;100.00
53916;BME280;39827;49.652;18.770;2023-01-25T05:54:41;97951.78;;;0.03;100.00
53916;BME280;39827;49.652;18.770;2023-01-25T05:57:06;97963.59;;;-0.03;100.00
53916;BME280;39827;49.652;18.770;2023-01-25T05:59:32;97957.31;;;0.00;100.00
53916;BME280;39827;49.652;18.770;2023-01-25T06:01:57;97957.13;;;0.02;100.00
53916;BME280;39827;49.652;18.770;2023-01-25T06:04:22;97957.38;;;0.17;100.00
53916;BME280;39827;49.652;18.770;2023-01-25T06:06:48;97961.75;;;0.08;100.00
53916;BME280;39827;49.652;18.770;2023-01-25T06:09:13;97951.50;;;-0.12;100.00
53916;BME280;39827;49.652;18.770;2023-01-25T06:11:42;97954.53;;;0.02;100.00
53916;BME280;39827;49.652;18.770;2023-01-25T06:14:08;97954.31;;;-0.05;100.00
53916;BME280;39827;49.652;18.770;2023-01-25T06:16:34;97951.88;;;-0.07;100.00
53916;BME280;39827;49.652;18.770;2023-01-25T06:18:59;97952.84;;;-0.08;100.00
53916;BME280;39827;49.652;18.770;2023-01-25T06:21:24;97959.28;;;0.06;100.00
53916;BME280;39827;49.652;18.770;2023-01-25T06:23:50;97957.91;;;-0.06;100.00
53916;BME280;39827;49.652;18.770;2023-01-25T06:26:15;97957.75;;;-0.05;100.00
53916;BME280;39827;49.652;18.770;2023-01-25T06:28:40;97960.66;;;-0.08;100.00
53916;BME280;39827;49.652;18.770;2023-01-25T06:31:13;97953.97;;;-0.10;100.00
53916;BME280;39827;49.652;18.770;2023-01-25T06:33:40;97950.56;;;0.16;100.00
53916;BME280;39827;49.652;18.770;2023-01-25T06:36:13;97957.78;;;0.30;100.00
53916;BME280;39827;49.652;18.770;2023-01-25T06:38:40;97942.31;;;0.63;100.00
53916;BME280;39827;49.652;18.770;2023-01-25T06:41:08;97934.72;;;0.78;100.00
53916;BME280;39827;49.652;18.770;2023-01-25T06:43:35;97938.41;;;0.68;100.00
53916;BME280;39827;49.652;18.770;2023-01-25T06:46:05;97950.72;;;0.49;100.00
53916;BME280;39827;49.652;18.770;2023-01-25T06:48:31;97951.28;;;0.34;100.00
53916;BME280;39827;49.652;18.770;2023-01-25T06:50:58;97938.44;;;0.33;100.00
53916;BME280;39827;49.652;18.770;2023-01-25T06:53:26;97948.50;;;0.28;100.00
53916;BME280;39827;49.652;18.770;2023-01-25T06:56:03;97930.81;;;0.40;100.00
53916;BME280;39827;49.652;18.770;2023-01-25T06:58:30;97933.53;;;0.30;100.00
53916;BME280;39827;49.652;18.770;2023-01-25T07:01:22;97936.69;;;0.42;100.00
53916;BME280;39827;49.652;18.770;2023-01-25T07:03:53;97937.50;;;0.42;100.00
53916;BME280;39827;49.652;18.770;2023-01-25T07:06:20;97939.41;;;0.67;100.00
53916;BME280;39827;49.652;18.770;2023-01-25T07:08:46;97941.88;;;0.76;100.00
53916;BME280;39827;49.652;18.770;2023-01-25T07:11:12;97951.91;;;0.63;100.00
53916;BME280;39827;49.652;18.770;2023-01-25T07:13:40;97939.63;;;0.47;100.00
53916;BME280;39827;49.652;18.770;2023-01-25T07:16:09;97943.06;;;0.47;100.00
53916;BME280;39827;49.652;18.770;2023-01-25T07:18:35;97942.53;;;0.78;100.00
53916;BME280;39827;49.652;18.770;2023-01-25T07:21:05;97935.13;;;0.57;100.00
53916;BME280;39827;49.652;18.770;2023-01-25T07:23:31;97934.41;;;0.47;100.00
53916;BME280;39827;49.652;18.770;2023-01-25T07:25:58;97932.00;;;0.54;100.00
53916;BME280;39827;49.652;18.770;2023-01-25T07:28:23;97922.09;;;0.57;100.00
53916;BME280;39827;49.652;18.770;2023-01-25T07:30:49;97928.06;;;0.49;100.00
53916;BME280;39827;49.652;18.770;2023-01-25T07:33:16;97933.09;;;0.43;100.00
53916;BME280;39827;49.652;18.770;2023-01-25T07:35:41;97934.22;;;0.40;100.00
53916;BME280;39827;49.652;18.770;2023-01-25T07:38:07;97942.84;;;0.32;100.00
53916;BME280;39827;49.652;18.770;2023-01-25T07:40:32;97943.28;;;0.28;100.00
53916;BME280;39827;49.652;18.770;2023-01-25T07:42:58;97938.38;;;0.59;100.00
53916;BME280;39827;49.652;18.770;2023-01-25T07:45:24;97927.44;;;0.47;100.00
53916;BME280;39827;49.652;18.770;2023-01-25T07:47:55;97925.63;;;0.99;100.00
53916;BME280;39827;49.652;18.770;2023-01-25T07:50:20;97925.16;;;1.12;100.00
53916;BME280;39827;49.652;18.770;2023-01-25T07:52:46;97919.69;;;0.81;100.00
53916;BME280;39827;49.652;18.770;2023-01-25T07:55:11;97924.91;;;0.72;100.00
53916;BME280;39827;49.652;18.770;2023-01-25T07:57:37;97920.34;;;0.74;100.00
53916;BME280;39827;49.652;18.770;2023-01-25T08:00:03;97920.66;;;0.71;100.00
53916;BME280;39827;49.652;18.770;2023-01-25T08:02:28;97916.69;;;0.59;100.00
53916;BME280;39827;49.652;18.770;2023-01-25T08:04:53;97908.38;;;0.55;100.00
53916;BME280;39827;49.652;18.770;2023-01-25T08:07:19;97911.84;;;0.64;100.00
53916;BME280;39827;49.652;18.770;2023-01-25T08:09:47;97915.16;;;0.83;100.00
53916;BME280;39827;49.652;18.770;2023-01-25T08:12:12;97914.66;;;0.71;100.00
53916;BME280;39827;49.652;18.770;2023-01-25T08:14:38;97905.88;;;0.80;100.00
53916;BME280;39827;49.652;18.770;2023-01-25T08:17:03;97906.81;;;0.71;100.00
53916;BME280;39827;49.652;18.770;2023-01-25T08:19:29;97891.88;;;0.98;100.00
53916;BME280;39827;49.652;18.770;2023-01-25T08:21:54;97904.13;;;1.14;100.00
53916;BME280;39827;49.652;18.770;2023-01-25T08:24:19;97898.75;;;1.07;100.00
53916;BME280;39827;49.652;18.770;2023-01-25T08:26:45;97901.66;;;0.96;100.00
53916;BME280;39827;49.652;18.770;2023-01-25T08:29:11;97896.59;;;0.86;100.00
53916;BME280;39827;49.652;18.770;2023-01-25T08:31:39;97882.09;;;0.83;100.00
53916;BME280;39827;49.652;18.770;2023-01-25T08:34:05;97883.03;;;0.82;100.00
53916;BME280;39827;49.652;18.770;2023-01-25T08:36:31;97878.94;;;0.71;100.00
53916;BME280;39827;49.652;18.770;2023-01-25T08:38:59;97885.50;;;0.84;100.00
53916;BME280;39827;49.652;18.770;2023-01-25T08:41:27;97887.47;;;0.90;100.00
53916;BME280;39827;49.652;18.770;2023-01-25T08:43:54;97891.09;;;1.30;100.00
53916;BME280;39827;49.652;18.770;2023-01-25T08:46:20;97878.03;;;1.06;100.00
53916;BME280;39827;49.652;18.770;2023-01-25T08:48:46;97876.75;;;1.26;100.00
53916;BME280;39827;49.652;18.770;2023-01-25T08:51:14;97881.00;;;1.36;100.00
53916;BME280;39827;49.652;18.770;2023-01-25T08:53:40;97873.31;;;1.17;100.00
53916;BME280;39827;49.652;18.770;2023-01-25T08:56:08;97873.97;;;1.11;100.00
53916;BME280;39827;49.652;18.770;2023-01-25T08:58:39;97877.88;;;1.07;100.00
53916;BME280;39827;49.652;18.770;2023-01-25T09:01:07;97884.41;;;1.11;100.00
53916;BME280;39827;49.652;18.770;2023-01-25T09:03:34;97885.06;;;1.05;100.00
53916;BME280;39827;49.652;18.770;2023-01-25T09:06:00;97875.44;;;1.06;100.00
53916;BME280;39827;49.652;18.770;2023-01-25T09:08:26;97874.94;;;0.94;100.00
53916;BME280;39827;49.652;18.770;2023-01-25T09:10:51;97869.72;;;0.94;100.00
53916;BME280;39827;49.652;18.770;2023-01-25T09:13:17;97877.88;;;1.07;100.00
53916;BME280;39827;49.652;18.770;2023-01-25T09:15:42;97869.72;;;1.02;100.00
53916;BME280;39827;49.652;18.770;2023-01-25T09:18:08;97874.63;;;1.05;100.00
53916;BME280;39827;49.652;18.770;2023-01-25T09:20:36;97867.94;;;1.11;100.00
53916;BME280;39827;49.652;18.770;2023-01-25T09:23:02;97868.13;;;1.09;100.00
53916;BME280;39827;49.652;18.770;2023-01-25T09:25:27;97876.91;;;1.08;100.00
53916;BME280;39827;49.652;18.770;2023-01-25T09:27:52;97873.50;;;1.16;100.00
53916;BME280;39827;49.652;18.770;2023-01-25T09:30:18;97861.59;;;1.05;100.00
53916;BME280;39827;49.652;18.770;2023-01-25T09:32:43;97861.41;;;1.23;100.00
53916;BME280;39827;49.652;18.770;2023-01-25T09:35:09;97867.13;;;1.10;100.00
53916;BME280;39827;49.652;18.770;2023-01-25T09:37:34;97858.47;;;1.10;100.00
53916;BME280;39827;49.652;18.770;2023-01-25T09:40:00;97857.19;;;1.14;100.00
53916;BME280;39827;49.652;18.770;2023-01-25T09:53:24;97841.03;;;1.19;100.00
53916;BME280;39827;49.652;18.770;2023-01-25T09:55:55;97828.97;;;1.17;100.00
53916;BME280;39827;49.652;18.770;2023-01-25T09:58:46;97826.34;;;1.51;100.00
53916;BME280;39827;49.652;18.770;2023-01-25T10:06:21;97816.66;;;1.68;100.00
53916;BME280;39827;49.652;18.770;2023-01-25T10:11:30;97796.59;;;2.17;98.70
53916;BME280;39827;49.652;18.770;2023-01-25T10:13:57;97797.75;;;2.14;97.81
53916;BME280;39827;49.652;18.770;2023-01-25T10:16:28;97795.28;;;2.21;96.29
53916;BME280;39827;49.652;18.770;2023-01-25T10:21:34;97784.97;;;1.88;97.17
53916;BME280;39827;49.652;18.770;2023-01-25T10:26:55;97775.91;;;1.59;99.84
53916;BME280;39827;49.652;18.770;2023-01-25T10:29:22;97779.81;;;1.63;100.00
53916;BME280;39827;49.652;18.770;2023-01-25T10:31:52;97768.41;;;1.64;100.00
53916;BME280;39827;49.652;18.770;2023-01-25T10:34:25;97772.13;;;1.61;100.00
53916;BME280;39827;49.652;18.770;2023-01-25T10:36:56;97757.63;;;1.50;100.00
53916;BME280;39827;49.652;18.770;2023-01-25T10:39:25;97765.47;;;1.50;100.00
53916;BME280;39827;49.652;18.770;2023-01-25T10:42:05;97768.28;;;1.49;100.00
53916;BME280;39827;49.652;18.770;2023-01-25T10:44:33;97744.41;;;1.60;100.00
53916;BME280;39827;49.652;18.770;2023-01-25T10:49:50;97751.34;;;1.85;100.00
53916;BME280;39827;49.652;18.770;2023-01-25T10:54:41;97742.06;;;1.74;100.00
53916;BME280;39827;49.652;18.770;2023-01-25T10:57:08;97741.63;;;1.62;100.00
53916;BME280;39827;49.652;18.770;2023-01-25T10:59:37;97740.19;;;1.99;98.71
53916;BME280;39827;49.652;18.770;2023-01-25T11:02:35;97740.31;;;1.66;100.00
53916;BME280;39827;49.652;18.770;2023-01-25T11:07:45;97717.53;;;1.51;100.00
53916;BME280;39827;49.652;18.770;2023-01-25T11:15:43;97718.78;;;1.64;100.00
53916;BME280;39827;49.652;18.770;2023-01-25T11:18:35;97709.88;;;1.50;100.00
53916;BME280;39827;49.652;18.770;2023-01-25T11:21:31;97711.34;;;1.44;100.00
53916;BME280;39827;49.652;18.770;2023-01-25T11:24:15;97710.63;;;1.59;100.00
53916;BME280;39827;49.652;18.770;2023-01-25T11:26:42;97692.22;;;1.52;100.00
53916;BME280;39827;49.652;18.770;2023-01-25T11:29:17;97686.84;;;1.53;100.00
53916;BME280;39827;49.652;18.770;2023-01-25T11:31:48;97684.09;;;1.47;100.00
53916;BME280;39827;49.652;18.770;2023-01-25T11:34:16;97691.25;;;1.53;100.00
53916;BME280;39827;49.652;18.770;2023-01-25T11:40:18;97685.09;;;1.37;100.00
53916;BME280;39827;49.652;18.770;2023-01-25T11:42:58;97680.13;;;1.59;100.00
53916;BME280;39827;49.652;18.770;2023-01-25T11:45:42;97671.84;;;1.55;100.00
53916;BME280;39827;49.652;18.770;2023-01-25T11:53:34;97655.06;;;1.50;100.00
53916;BME280;39827;49.652;18.770;2023-01-25T12:24:22;97644.84;;;1.32;100.00
53916;BME280;39827;49.652;18.770;2023-01-25T12:30:23;97632.13;;;1.28;100.00
53916;BME280;39827;49.652;18.770;2023-01-25T12:33:04;97622.88;;;1.17;100.00
53916;BME280;39827;49.652;18.770;2023-01-25T12:35:38;97616.53;;;1.20;100.00
53916;BME280;39827;49.652;18.770;2023-01-25T12:38:14;97616.66;;;1.27;100.00
53916;BME280;39827;49.652;18.770;2023-01-25T12:40:52;97602.81;;;1.18;100.00
53916;BME280;39827;49.652;18.770;2023-01-25T12:43:30;97599.38;;;1.17;100.00
53916;BME280;39827;49.652;18.770;2023-01-25T12:46:09;97597.56;;;1.26;100.00
53916;BME280;39827;49.652;18.770;2023-01-25T12:48:40;97603.56;;;1.35;100.00
53916;BME280;39827;49.652;18.770;2023-01-25T12:51:08;97604.72;;;1.33;100.00
53916;BME280;39827;49.652;18.770;2023-01-25T12:53:41;97586.63;;;1.31;100.00
53916;BME280;39827;49.652;18.770;2023-01-25T12:56:30;97597.81;;;1.48;100.00
53916;BME280;39827;49.652;18.770;2023-01-25T12:59:07;97593.41;;;1.49;100.00
53916;BME280;39827;49.652;18.770;2023-01-25T13:01:56;97587.94;;;1.59;100.00
53916;BME280;39827;49.652;18.770;2023-01-25T13:07:42;97574.78;;;1.20;100.00
53916;BME280;39827;49.652;18.770;2023-01-25T13:13:00;97572.44;;;1.34;100.00
53916;BME280;39827;49.652;18.770;2023-01-25T13:15:35;97573.38;;;1.09;100.00
53916;BME280;39827;49.652;18.770;2023-01-25T13:21:04;97559.38;;;0.94;100.00
53916;BME280;39827;49.652;18.770;2023-01-25T13:23:43;97551.84;;;1.39;100.00
53916;BME280;39827;49.652;18.770;2023-01-25T13:28:57;97549.50;;;1.21;100.00
53916;BME280;39827;49.652;18.770;2023-01-25T13:37:01;97541.59;;;0.97;100.00
53916;BME280;39827;49.652;18.770;2023-01-25T13:42:23;97540.13;;;1.03;100.00
53916;BME280;39827;49.652;18.770;2023-01-25T13:44:53;97522.78;;;0.78;100.00
53916;BME280;39827;49.652;18.770;2023-01-25T13:47:22;97526.22;;;0.79;100.00
53916;BME280;39827;49.652;18.770;2023-01-25T13:52:32;97524.22;;;0.81;100.00
53916;BME280;39827;49.652;18.770;2023-01-25T13:54:58;97537.78;;;0.76;100.00
53916;BME280;39827;49.652;18.770;2023-01-25T13:57:29;97535.50;;;1.13;100.00
53916;BME280;39827;49.652;18.770;2023-01-25T14:00:04;97526.91;;;1.04;100.00
53916;BME280;39827;49.652;18.770;2023-01-25T14:02:32;97532.84;;;1.22;100.00
53916;BME280;39827;49.652;18.770;2023-01-25T14:04:59;97520.84;;;1.12;100.00
53916;BME280;39827;49.652;18.770;2023-01-25T14:07:31;97525.22;;;0.80;100.00
53916;BME280;39827;49.652;18.770;2023-01-25T14:10:07;97520.00;;;0.80;100.00
53916;BME280;39827;49.652;18.770;2023-01-25T14:12:38;97518.34;;;0.87;100.00
53916;BME280;39827;49.652;18.770;2023-01-25T14:15:26;97518.56;;;0.69;100.00
53916;BME280;39827;49.652;18.770;2023-01-25T14:20:35;97499.78;;;0.82;100.00
53916;BME280;39827;49.652;18.770;2023-01-25T14:23:00;97489.72;;;0.79;100.00
53916;BME280;39827;49.652;18.770;2023-01-25T14:25:26;97493.38;;;0.61;100.00
53916;BME280;39827;49.652;18.770;2023-01-25T14:27:55;97500.59;;;0.83;100.00
53916;BME280;39827;49.652;18.770;2023-01-25T14:30:26;97500.63;;;0.74;100.00
53916;BME280;39827;49.652;18.770;2023-01-25T14:32:57;97499.38;;;0.62;100.00
53916;BME280;39827;49.652;18.770;2023-01-25T14:37:51;97500.72;;;0.49;100.00
53916;BME280;39827;49.652;18.770;2023-01-25T14:40:19;97499.63;;;0.84;100.00
53916;BME280;39827;49.652;18.770;2023-01-25T14:42:50;97493.09;;;0.88;100.00
53916;BME280;39827;49.652;18.770;2023-01-25T14:45:17;97498.84;;;0.75;100.00
53916;BME280;39827;49.652;18.770;2023-01-25T14:47:43;97488.09;;;0.70;100.00
53916;BME280;39827;49.652;18.770;2023-01-25T14:50:28;97488.47;;;0.58;100.00
53916;BME280;39827;49.652;18.770;2023-01-25T14:52:54;97485.91;;;0.50;100.00
53916;BME280;39827;49.652;18.770;2023-01-25T14:55:20;97482.13;;;0.52;100.00
53916;BME280;39827;49.652;18.770;2023-01-25T14:57:45;97477.13;;;0.34;100.00